sensor_id;sensor_type;location;lat;lon;timestamp;P1;durP1;ratioP1;P2;durP2;ratioP2
71095;SDS011;58753;49.440;11.126;2023-03-12T00:02:03;6.17;;;3.07;;
71095;SDS011;58753;49.440;11.126;2023-03-12T00:04:30;8.57;;;3.37;;
71095;SDS011;58753;49.440;11.126;2023-03-12T00:06:56;7.35;;;3.40;;
71095;SDS011;58753;49.440;11.126;2023-03-12T00:09:21;10.17;;;3.47;;
71095;SDS011;58753;49.440;11.126;2023-03-12T00:11:47;7.63;;;3.42;;
71095;SDS011;58753;49.440;11.126;2023-03-12T00:14:13;5.73;;;3.07;;
71095;SDS011;58753;49.440;11.126;2023-03-12T00:16:38;9.05;;;3.20;;
71095;SDS011;58753;49.440;11.126;2023-03-12T00:19:04;5.83;;;2.43;;
71095;SDS011;58753;49.440;11.126;2023-03-12T00:21:29;6.70;;;2.97;;
71095;SDS011;58753;49.440;11.126;2023-03-12T00:23:54;8.20;;;3.60;;
71095;SDS011;58753;49.440;11.126;2023-03-12T00:26:20;7.43;;;3.80;;
71095;SDS011;58753;49.440;11.126;2023-03-12T00:28:47;7.93;;;3.22;;
71095;SDS011;58753;49.440;11.126;2023-03-12T00:33:46;8.48;;;3.80;;
71095;SDS011;58753;49.440;11.126;2023-03-12T00:36:19;8.48;;;2.80;;
71095;SDS011;58753;49.440;11.126;2023-03-12T00:38:47;6.50;;;2.88;;
71095;SDS011;58753;49.440;11.126;2023-03-12T00:41:13;6.57;;;3.20;;
71095;SDS011;58753;49.440;11.126;2023-03-12T00:43:38;6.37;;;3.50;;
71095;SDS011;58753;49.440;11.126;2023-03-12T00:46:03;5.80;;;2.80;;
71095;SDS011;58753;49.440;11.126;2023-03-12T00:48:29;8.07;;;3.83;;
71095;SDS011;58753;49.440;11.126;2023-03-12T00:50:54;7.07;;;2.83;;
71095;SDS011;58753;49.440;11.126;2023-03-12T00:53:20;5.20;;;3.07;;
71095;SDS011;58753;49.440;11.126;2023-03-12T00:55:45;6.97;;;3.30;;
71095;SDS011;58753;49.440;11.126;2023-03-12T00:58:11;6.88;;;3.47;;
71095;SDS011;58753;49.440;11.126;2023-03-12T01:00:36;7.07;;;3.63;;
71095;SDS011;58753;49.440;11.126;2023-03-12T01:03:01;7.60;;;3.37;;
71095;SDS011;58753;49.440;11.126;2023-03-12T01:05:27;7.03;;;3.50;;
71095;SDS011;58753;49.440;11.126;2023-03-12T01:07:52;6.47;;;3.17;;
71095;SDS011;58753;49.440;11.126;2023-03-12T01:10:18;7.20;;;3.17;;
71095;SDS011;58753;49.440;11.126;2023-03-12T01:12:44;6.35;;;2.83;;
71095;SDS011;58753;49.440;11.126;2023-03-12T01:15:12;9.87;;;3.33;;
71095;SDS011;58753;49.440;11.126;2023-03-12T01:17:39;7.18;;;2.78;;
71095;SDS011;58753;49.440;11.126;2023-03-12T01:20:04;10.60;;;3.27;;
71095;SDS011;58753;49.440;11.126;2023-03-12T01:22:30;6.28;;;2.78;;
71095;SDS011;58753;49.440;11.126;2023-03-12T01:24:56;7.93;;;3.07;;
71095;SDS011;58753;49.440;11.126;2023-03-12T01:27:21;6.60;;;3.28;;
71095;SDS011;58753;49.440;11.126;2023-03-12T01:29:46;9.53;;;3.27;;
71095;SDS011;58753;49.440;11.126;2023-03-12T01:32:12;6.87;;;3.33;;
71095;SDS011;58753;49.440;11.126;2023-03-12T01:34:37;8.00;;;3.17;;
71095;SDS011;58753;49.440;11.126;2023-03-12T01:37:03;7.57;;;3.47;;
71095;SDS011;58753;49.440;11.126;2023-03-12T01:39:28;7.77;;;3.10;;
71095;SDS011;58753;49.440;11.126;2023-03-12T01:41:54;7.67;;;3.43;;
71095;SDS011;58753;49.440;11.126;2023-03-12T01:44:19;9.93;;;4.90;;
71095;SDS011;58753;49.440;11.126;2023-03-12T01:46:45;11.70;;;4.03;;
71095;SDS011;58753;49.440;11.126;2023-03-12T01:49:12;7.40;;;3.20;;
71095;SDS011;58753;49.440;11.126;2023-03-12T01:54:22;10.48;;;3.95;;
71095;SDS011;58753;49.440;11.126;2023-03-12T01:56:55;6.67;;;3.50;;
71095;SDS011;58753;49.440;11.126;2023-03-12T01:59:25;10.57;;;3.28;;
71095;SDS011;58753;49.440;11.126;2023-03-12T02:01:54;8.25;;;3.58;;
71095;SDS011;58753;49.440;11.126;2023-03-12T02:04:20;6.77;;;3.13;;
71095;SDS011;58753;49.440;11.126;2023-03-12T02:09:19;8.40;;;3.55;;
71095;SDS011;58753;49.440;11.126;2023-03-12T02:11:45;10.00;;;4.30;;
71095;SDS011;58753;49.440;11.126;2023-03-12T02:14:11;7.28;;;3.50;;
71095;SDS011;58753;49.440;11.126;2023-03-12T02:16:36;6.70;;;3.23;;
71095;SDS011;58753;49.440;11.126;2023-03-12T02:19:02;10.07;;;4.97;;
71095;SDS011;58753;49.440;11.126;2023-03-12T02:21:32;8.98;;;3.53;;
71095;SDS011;58753;49.440;11.126;2023-03-12T02:26:32;8.65;;;3.75;;
71095;SDS011;58753;49.440;11.126;2023-03-12T02:29:00;7.20;;;3.13;;
71095;SDS011;58753;49.440;11.126;2023-03-12T02:31:27;8.20;;;3.50;;
71095;SDS011;58753;49.440;11.126;2023-03-12T02:33:57;7.63;;;4.22;;
71095;SDS011;58753;49.440;11.126;2023-03-12T02:36:24;9.17;;;3.73;;
71095;SDS011;58753;49.440;11.126;2023-03-12T02:38:50;6.85;;;3.67;;
71095;SDS011;58753;49.440;11.126;2023-03-12T02:41:51;6.68;;;3.67;;
71095;SDS011;58753;49.440;11.126;2023-03-12T02:44:23;7.17;;;3.03;;
71095;SDS011;58753;49.440;11.126;2023-03-12T02:46:54;9.93;;;3.30;;
71095;SDS011;58753;49.440;11.126;2023-03-12T02:49:21;8.18;;;3.08;;
71095;SDS011;58753;49.440;11.126;2023-03-12T02:51:49;8.35;;;4.05;;
71095;SDS011;58753;49.440;11.126;2023-03-12T02:54:15;7.87;;;3.40;;
71095;SDS011;58753;49.440;11.126;2023-03-12T02:56:42;9.20;;;3.60;;
71095;SDS011;58753;49.440;11.126;2023-03-12T02:59:08;11.02;;;4.07;;
71095;SDS011;58753;49.440;11.126;2023-03-12T03:01:34;6.00;;;3.25;;
71095;SDS011;58753;49.440;11.126;2023-03-12T03:04:00;9.90;;;3.60;;
71095;SDS011;58753;49.440;11.126;2023-03-12T03:06:26;7.70;;;3.67;;
71095;SDS011;58753;49.440;11.126;2023-03-12T03:08:52;9.55;;;3.55;;
71095;SDS011;58753;49.440;11.126;2023-03-12T03:11:18;10.13;;;4.07;;
71095;SDS011;58753;49.440;11.126;2023-03-12T03:13:43;9.03;;;3.73;;
71095;SDS011;58753;49.440;11.126;2023-03-12T03:16:09;9.75;;;3.95;;
71095;SDS011;58753;49.440;11.126;2023-03-12T03:18:36;6.97;;;3.05;;
71095;SDS011;58753;49.440;11.126;2023-03-12T03:21:06;8.23;;;3.83;;
71095;SDS011;58753;49.440;11.126;2023-03-12T03:23:33;8.02;;;4.43;;
71095;SDS011;58753;49.440;11.126;2023-03-12T03:25:59;11.55;;;4.25;;
71095;SDS011;58753;49.440;11.126;2023-03-12T03:28:26;7.47;;;3.67;;
71095;SDS011;58753;49.440;11.126;2023-03-12T03:30:53;8.88;;;3.33;;
71095;SDS011;58753;49.440;11.126;2023-03-12T03:33:19;13.75;;;3.80;;
71095;SDS011;58753;49.440;11.126;2023-03-12T03:35:46;9.98;;;3.90;;
71095;SDS011;58753;49.440;11.126;2023-03-12T03:38:12;10.63;;;3.88;;
71095;SDS011;58753;49.440;11.126;2023-03-12T03:40:37;8.10;;;3.77;;
71095;SDS011;58753;49.440;11.126;2023-03-12T03:43:03;8.77;;;4.70;;
71095;SDS011;58753;49.440;11.126;2023-03-12T03:45:28;10.33;;;4.07;;
71095;SDS011;58753;49.440;11.126;2023-03-12T03:47:53;9.47;;;3.70;;
71095;SDS011;58753;49.440;11.126;2023-03-12T03:50:19;10.77;;;3.90;;
71095;SDS011;58753;49.440;11.126;2023-03-12T03:52:44;7.60;;;3.57;;
71095;SDS011;58753;49.440;11.126;2023-03-12T03:55:09;7.27;;;3.50;;
71095;SDS011;58753;49.440;11.126;2023-03-12T03:57:35;8.07;;;4.47;;
71095;SDS011;58753;49.440;11.126;2023-03-12T04:00:00;8.30;;;3.63;;
71095;SDS011;58753;49.440;11.126;2023-03-12T04:02:26;8.73;;;3.43;;
71095;SDS011;58753;49.440;11.126;2023-03-12T04:04:52;7.22;;;3.38;;
71095;SDS011;58753;49.440;11.126;2023-03-12T04:07:21;9.80;;;3.95;;
71095;SDS011;58753;49.440;11.126;2023-03-12T04:09:47;12.57;;;3.83;;
71095;SDS011;58753;49.440;11.126;2023-03-12T04:12:12;9.00;;;3.67;;
71095;SDS011;58753;49.440;11.126;2023-03-12T04:14:39;9.23;;;3.60;;
71095;SDS011;58753;49.440;11.126;2023-03-12T04:17:05;10.13;;;4.03;;
71095;SDS011;58753;49.440;11.126;2023-03-12T04:19:30;8.10;;;3.70;;
71095;SDS011;58753;49.440;11.126;2023-03-12T04:21:56;8.73;;;3.80;;
71095;SDS011;58753;49.440;11.126;2023-03-12T04:24:21;10.33;;;4.53;;
71095;SDS011;58753;49.440;11.126;2023-03-12T04:26:46;9.40;;;3.57;;
71095;SDS011;58753;49.440;11.126;2023-03-12T04:29:12;6.30;;;3.20;;
71095;SDS011;58753;49.440;11.126;2023-03-12T04:31:37;9.43;;;4.27;;
71095;SDS011;58753;49.440;11.126;2023-03-12T04:34:03;7.30;;;3.90;;
71095;SDS011;58753;49.440;11.126;2023-03-12T04:36:28;9.38;;;4.30;;
71095;SDS011;58753;49.440;11.126;2023-03-12T04:38:54;9.70;;;4.30;;
71095;SDS011;58753;49.440;11.126;2023-03-12T04:41:20;9.23;;;4.38;;
71095;SDS011;58753;49.440;11.126;2023-03-12T04:43:46;9.00;;;4.10;;
71095;SDS011;58753;49.440;11.126;2023-03-12T04:46:11;7.57;;;3.90;;
71095;SDS011;58753;49.440;11.126;2023-03-12T04:48:36;6.07;;;3.67;;
71095;SDS011;58753;49.440;11.126;2023-03-12T04:51:03;13.65;;;4.32;;
71095;SDS011;58753;49.440;11.126;2023-03-12T04:53:29;6.90;;;3.73;;
71095;SDS011;58753;49.440;11.126;2023-03-12T04:55:54;8.65;;;3.28;;
71095;SDS011;58753;49.440;11.126;2023-03-12T04:58:20;8.03;;;3.40;;
71095;SDS011;58753;49.440;11.126;2023-03-12T05:00:46;10.82;;;4.18;;
71095;SDS011;58753;49.440;11.126;2023-03-12T05:03:13;7.70;;;3.55;;
71095;SDS011;58753;49.440;11.126;2023-03-12T05:05:38;7.70;;;3.70;;
71095;SDS011;58753;49.440;11.126;2023-03-12T05:08:03;7.50;;;3.43;;
71095;SDS011;58753;49.440;11.126;2023-03-12T05:10:29;7.57;;;2.92;;
71095;SDS011;58753;49.440;11.126;2023-03-12T05:12:54;6.97;;;3.30;;
71095;SDS011;58753;49.440;11.126;2023-03-12T05:15:20;10.27;;;3.57;;
71095;SDS011;58753;49.440;11.126;2023-03-12T05:17:45;7.85;;;2.92;;
71095;SDS011;58753;49.440;11.126;2023-03-12T05:20:11;6.67;;;3.13;;
71095;SDS011;58753;49.440;11.126;2023-03-12T05:22:37;6.85;;;3.35;;
71095;SDS011;58753;49.440;11.126;2023-03-12T05:25:03;8.50;;;3.38;;
71095;SDS011;58753;49.440;11.126;2023-03-12T05:27:29;6.53;;;3.40;;
71095;SDS011;58753;49.440;11.126;2023-03-12T05:29:55;9.43;;;4.07;;
71095;SDS011;58753;49.440;11.126;2023-03-12T05:32:20;7.70;;;3.57;;
71095;SDS011;58753;49.440;11.126;2023-03-12T05:34:46;6.53;;;3.47;;
71095;SDS011;58753;49.440;11.126;2023-03-12T05:37:11;6.50;;;3.00;;
71095;SDS011;58753;49.440;11.126;2023-03-12T05:39:36;7.43;;;2.83;;
71095;SDS011;58753;49.440;11.126;2023-03-12T05:42:02;8.40;;;3.73;;
71095;SDS011;58753;49.440;11.126;2023-03-12T05:44:28;6.40;;;2.53;;
71095;SDS011;58753;49.440;11.126;2023-03-12T05:46:54;6.40;;;3.13;;
71095;SDS011;58753;49.440;11.126;2023-03-12T05:49:19;7.97;;;3.47;;
71095;SDS011;58753;49.440;11.126;2023-03-12T05:51:46;8.35;;;2.65;;
71095;SDS011;58753;49.440;11.126;2023-03-12T05:54:12;5.32;;;3.20;;
71095;SDS011;58753;49.440;11.126;2023-03-12T05:56:38;8.87;;;3.27;;
71095;SDS011;58753;49.440;11.126;2023-03-12T05:59:03;11.00;;;3.67;;
71095;SDS011;58753;49.440;11.126;2023-03-12T06:01:30;9.20;;;3.22;;
71095;SDS011;58753;49.440;11.126;2023-03-12T06:03:55;7.32;;;3.17;;
71095;SDS011;58753;49.440;11.126;2023-03-12T06:06:21;7.60;;;3.33;;
71095;SDS011;58753;49.440;11.126;2023-03-12T06:08:47;7.33;;;3.07;;
71095;SDS011;58753;49.440;11.126;2023-03-12T06:11:13;10.07;;;3.10;;
71095;SDS011;58753;49.440;11.126;2023-03-12T06:13:39;10.75;;;6.32;;
71095;SDS011;58753;49.440;11.126;2023-03-12T06:16:06;7.63;;;3.10;;
71095;SDS011;58753;49.440;11.126;2023-03-12T06:18:33;7.35;;;3.30;;
71095;SDS011;58753;49.440;11.126;2023-03-12T06:21:13;9.30;;;3.38;;
71095;SDS011;58753;49.440;11.126;2023-03-12T06:23:42;7.40;;;2.72;;
71095;SDS011;58753;49.440;11.126;2023-03-12T06:26:09;7.68;;;3.63;;
71095;SDS011;58753;49.440;11.126;2023-03-12T06:28:35;7.43;;;3.33;;
71095;SDS011;58753;49.440;11.126;2023-03-12T06:31:01;10.20;;;3.38;;
71095;SDS011;58753;49.440;11.126;2023-03-12T06:33:27;4.80;;;2.67;;
71095;SDS011;58753;49.440;11.126;2023-03-12T06:35:56;5.90;;;2.90;;
71095;SDS011;58753;49.440;11.126;2023-03-12T06:38:24;5.50;;;2.50;;
71095;SDS011;58753;49.440;11.126;2023-03-12T06:43:26;4.77;;;2.37;;
71095;SDS011;58753;49.440;11.126;2023-03-12T06:45:53;5.00;;;2.53;;
71095;SDS011;58753;49.440;11.126;2023-03-12T06:48:20;5.95;;;3.03;;
71095;SDS011;58753;49.440;11.126;2023-03-12T06:50:46;5.07;;;2.40;;
71095;SDS011;58753;49.440;11.126;2023-03-12T06:53:11;6.13;;;2.60;;
71095;SDS011;58753;49.440;11.126;2023-03-12T06:55:36;6.30;;;3.03;;
71095;SDS011;58753;49.440;11.126;2023-03-12T06:58:02;8.32;;;3.00;;
71095;SDS011;58753;49.440;11.126;2023-03-12T07:00:28;9.37;;;3.13;;
71095;SDS011;58753;49.440;11.126;2023-03-12T07:02:54;7.75;;;3.28;;
71095;SDS011;58753;49.440;11.126;2023-03-12T07:05:21;10.27;;;3.53;;
71095;SDS011;58753;49.440;11.126;2023-03-12T07:07:47;6.30;;;3.03;;
71095;SDS011;58753;49.440;11.126;2023-03-12T07:10:12;5.00;;;2.50;;
71095;SDS011;58753;49.440;11.126;2023-03-12T07:12:37;8.10;;;3.03;;
71095;SDS011;58753;49.440;11.126;2023-03-12T07:15:03;10.33;;;3.00;;
71095;SDS011;58753;49.440;11.126;2023-03-12T07:17:28;5.05;;;2.00;;
71095;SDS011;58753;49.440;11.126;2023-03-12T07:19:54;5.70;;;2.60;;
71095;SDS011;58753;49.440;11.126;2023-03-12T07:22:19;7.47;;;2.23;;
71095;SDS011;58753;49.440;11.126;2023-03-12T07:24:44;5.53;;;2.22;;
71095;SDS011;58753;49.440;11.126;2023-03-12T07:27:10;4.37;;;1.60;;
71095;SDS011;58753;49.440;11.126;2023-03-12T07:29:35;10.57;;;3.43;;
71095;SDS011;58753;49.440;11.126;2023-03-12T07:32:01;6.37;;;2.83;;
71095;SDS011;58753;49.440;11.126;2023-03-12T07:34:26;4.10;;;1.90;;
71095;SDS011;58753;49.440;11.126;2023-03-12T07:36:51;6.78;;;2.17;;
71095;SDS011;58753;49.440;11.126;2023-03-12T07:39:17;6.07;;;2.23;;
71095;SDS011;58753;49.440;11.126;2023-03-12T07:41:43;6.65;;;2.95;;
71095;SDS011;58753;49.440;11.126;2023-03-12T07:44:08;6.47;;;2.10;;
71095;SDS011;58753;49.440;11.126;2023-03-12T07:46:34;4.57;;;2.10;;
71095;SDS011;58753;49.440;11.126;2023-03-12T07:49:00;8.03;;;2.53;;
71095;SDS011;58753;49.440;11.126;2023-03-12T07:51:26;9.20;;;2.28;;
71095;SDS011;58753;49.440;11.126;2023-03-12T07:53:51;3.83;;;2.10;;
71095;SDS011;58753;49.440;11.126;2023-03-12T07:56:17;3.33;;;1.87;;
71095;SDS011;58753;49.440;11.126;2023-03-12T07:58:42;5.40;;;2.03;;
71095;SDS011;58753;49.440;11.126;2023-03-12T08:01:08;7.47;;;2.17;;
71095;SDS011;58753;49.440;11.126;2023-03-12T08:03:33;3.47;;;1.53;;
71095;SDS011;58753;49.440;11.126;2023-03-12T08:05:59;4.85;;;1.92;;
71095;SDS011;58753;49.440;11.126;2023-03-12T08:08:27;11.57;;;4.30;;
71095;SDS011;58753;49.440;11.126;2023-03-12T08:10:53;8.77;;;3.78;;
71095;SDS011;58753;49.440;11.126;2023-03-12T08:13:18;5.65;;;2.22;;
71095;SDS011;58753;49.440;11.126;2023-03-12T08:15:44;3.37;;;1.60;;
71095;SDS011;58753;49.440;11.126;2023-03-12T08:18:09;4.15;;;1.80;;
71095;SDS011;58753;49.440;11.126;2023-03-12T08:20:35;3.60;;;1.10;;
71095;SDS011;58753;49.440;11.126;2023-03-12T08:23:00;4.93;;;2.10;;
71095;SDS011;58753;49.440;11.126;2023-03-12T08:25:26;5.87;;;3.00;;
71095;SDS011;58753;49.440;11.126;2023-03-12T08:27:51;5.70;;;2.63;;
71095;SDS011;58753;49.440;11.126;2023-03-12T08:30:17;7.67;;;2.60;;
71095;SDS011;58753;49.440;11.126;2023-03-12T08:32:42;5.37;;;2.00;;
71095;SDS011;58753;49.440;11.126;2023-03-12T08:35:08;4.88;;;1.67;;
71095;SDS011;58753;49.440;11.126;2023-03-12T08:37:34;5.90;;;1.87;;
71095;SDS011;58753;49.440;11.126;2023-03-12T08:40:00;8.43;;;2.00;;
71095;SDS011;58753;49.440;11.126;2023-03-12T08:42:26;8.07;;;2.47;;
71095;SDS011;58753;49.440;11.126;2023-03-12T08:44:51;4.20;;;1.80;;
71095;SDS011;58753;49.440;11.126;2023-03-12T08:47:17;6.13;;;2.03;;
71095;SDS011;58753;49.440;11.126;2023-03-12T08:49:42;4.57;;;2.00;;
71095;SDS011;58753;49.440;11.126;2023-03-12T08:52:08;4.93;;;1.97;;
71095;SDS011;58753;49.440;11.126;2023-03-12T08:54:33;7.18;;;2.42;;
71095;SDS011;58753;49.440;11.126;2023-03-12T08:56:59;9.43;;;1.60;;
71095;SDS011;58753;49.440;11.126;2023-03-12T08:59:24;5.27;;;2.10;;
71095;SDS011;58753;49.440;11.126;2023-03-12T09:01:49;6.87;;;2.20;;
71095;SDS011;58753;49.440;11.126;2023-03-12T09:04:15;4.20;;;2.57;;
71095;SDS011;58753;49.440;11.126;2023-03-12T09:06:47;6.97;;;2.20;;
71095;SDS011;58753;49.440;11.126;2023-03-12T09:09:12;4.70;;;2.00;;
71095;SDS011;58753;49.440;11.126;2023-03-12T09:11:38;6.57;;;2.23;;
71095;SDS011;58753;49.440;11.126;2023-03-12T09:14:03;7.27;;;2.33;;
71095;SDS011;58753;49.440;11.126;2023-03-12T09:16:29;6.15;;;2.13;;
71095;SDS011;58753;49.440;11.126;2023-03-12T09:18:54;3.97;;;1.70;;
71095;SDS011;58753;49.440;11.126;2023-03-12T09:21:20;4.40;;;1.97;;
71095;SDS011;58753;49.440;11.126;2023-03-12T09:23:45;7.00;;;1.77;;
71095;SDS011;58753;49.440;11.126;2023-03-12T09:26:11;5.73;;;1.87;;
71095;SDS011;58753;49.440;11.126;2023-03-12T09:28:37;7.60;;;2.42;;
71095;SDS011;58753;49.440;11.126;2023-03-12T09:31:03;7.20;;;1.90;;
71095;SDS011;58753;49.440;11.126;2023-03-12T09:33:29;7.03;;;1.70;;
71095;SDS011;58753;49.440;11.126;2023-03-12T09:35:56;3.90;;;1.20;;
71095;SDS011;58753;49.440;11.126;2023-03-12T09:38:23;3.40;;;1.23;;
71095;SDS011;58753;49.440;11.126;2023-03-12T09:40:48;9.13;;;1.85;;
71095;SDS011;58753;49.440;11.126;2023-03-12T09:46:31;2.40;;;1.40;;
71095;SDS011;58753;49.440;11.126;2023-03-12T09:49:01;3.47;;;1.40;;
71095;SDS011;58753;49.440;11.126;2023-03-12T09:51:49;3.50;;;1.38;;
71095;SDS011;58753;49.440;11.126;2023-03-12T09:55:19;6.85;;;2.35;;
71095;SDS011;58753;49.440;11.126;2023-03-12T09:57:22;8.00;;;1.90;;
71095;SDS011;58753;49.440;11.126;2023-03-12T09:59:50;8.10;;;1.97;;
71095;SDS011;58753;49.440;11.126;2023-03-12T10:05:10;4.28;;;1.67;;
71095;SDS011;58753;49.440;11.126;2023-03-12T10:08:39;4.15;;;1.42;;
71095;SDS011;58753;49.440;11.126;2023-03-12T10:10:55;4.40;;;1.67;;
71095;SDS011;58753;49.440;11.126;2023-03-12T10:22:47;6.07;;;1.40;;
71095;SDS011;58753;49.440;11.126;2023-03-12T10:28:16;4.53;;;2.00;;
71095;SDS011;58753;49.440;11.126;2023-03-12T10:31:04;6.05;;;1.30;;
71095;SDS011;58753;49.440;11.126;2023-03-12T10:33:41;6.22;;;2.55;;
71095;SDS011;58753;49.440;11.126;2023-03-12T10:36:18;7.70;;;1.65;;
71095;SDS011;58753;49.440;11.126;2023-03-12T10:38:47;4.53;;;1.60;;
71095;SDS011;58753;49.440;11.126;2023-03-12T10:41:20;4.77;;;1.53;;
71095;SDS011;58753;49.440;11.126;2023-03-12T10:43:48;4.47;;;1.52;;
71095;SDS011;58753;49.440;11.126;2023-03-12T10:48:38;5.80;;;2.00;;
71095;SDS011;58753;49.440;11.126;2023-03-12T10:51:09;4.88;;;1.80;;
71095;SDS011;58753;49.440;11.126;2023-03-12T10:53:40;5.55;;;1.98;;
71095;SDS011;58753;49.440;11.126;2023-03-12T10:56:18;5.60;;;1.80;;
71095;SDS011;58753;49.440;11.126;2023-03-12T10:58:46;5.67;;;1.77;;
71095;SDS011;58753;49.440;11.126;2023-03-12T11:04:07;7.40;;;2.88;;
71095;SDS011;58753;49.440;11.126;2023-03-12T11:06:41;5.93;;;1.92;;
71095;SDS011;58753;49.440;11.126;2023-03-12T11:09:17;7.20;;;2.40;;
71095;SDS011;58753;49.440;11.126;2023-03-12T11:11:47;5.63;;;2.10;;
71095;SDS011;58753;49.440;11.126;2023-03-12T11:14:21;10.13;;;2.60;;
71095;SDS011;58753;49.440;11.126;2023-03-12T11:16:49;6.40;;;2.40;;
71095;SDS011;58753;49.440;11.126;2023-03-12T11:21:55;6.50;;;2.50;;
71095;SDS011;58753;49.440;11.126;2023-03-12T11:24:25;3.45;;;2.17;;
71095;SDS011;58753;49.440;11.126;2023-03-12T11:26:51;7.80;;;2.73;;
71095;SDS011;58753;49.440;11.126;2023-03-12T11:29:27;6.88;;;2.33;;
71095;SDS011;58753;49.440;11.126;2023-03-12T11:34:40;7.45;;;1.90;;
71095;SDS011;58753;49.440;11.126;2023-03-12T11:48:27;7.25;;;3.28;;
71095;SDS011;58753;49.440;11.126;2023-03-12T11:56:44;6.68;;;2.10;;
71095;SDS011;58753;49.440;11.126;2023-03-12T12:05:15;7.60;;;2.80;;
71095;SDS011;58753;49.440;11.126;2023-03-12T12:10:28;9.13;;;3.40;;
71095;SDS011;58753;49.440;11.126;2023-03-12T12:15:31;8.52;;;3.70;;
71095;SDS011;58753;49.440;11.126;2023-03-12T12:18:13;8.43;;;3.70;;
71095;SDS011;58753;49.440;11.126;2023-03-12T12:26:33;7.07;;;3.53;;
71095;SDS011;58753;49.440;11.126;2023-03-12T12:29:29;12.85;;;5.00;;
71095;SDS011;58753;49.440;11.126;2023-03-12T12:32:03;11.67;;;5.83;;
71095;SDS011;58753;49.440;11.126;2023-03-12T12:40:15;10.57;;;5.03;;
71095;SDS011;58753;49.440;11.126;2023-03-12T12:45:28;10.57;;;4.97;;
71095;SDS011;58753;49.440;11.126;2023-03-12T12:48:08;11.98;;;4.35;;
71095;SDS011;58753;49.440;11.126;2023-03-12T12:50:38;11.15;;;4.50;;
71095;SDS011;58753;49.440;11.126;2023-03-12T12:55:46;10.00;;;4.50;;
71095;SDS011;58753;49.440;11.126;2023-03-12T12:58:39;9.80;;;5.22;;
71095;SDS011;58753;49.440;11.126;2023-03-12T13:01:20;11.15;;;4.95;;
71095;SDS011;58753;49.440;11.126;2023-03-12T13:03:46;10.07;;;4.80;;
71095;SDS011;58753;49.440;11.126;2023-03-12T13:06:12;10.43;;;5.25;;
71095;SDS011;58753;49.440;11.126;2023-03-12T13:13:53;6.60;;;4.03;;
71095;SDS011;58753;49.440;11.126;2023-03-12T13:18:59;9.07;;;5.30;;
71095;SDS011;58753;49.440;11.126;2023-03-12T13:26:50;12.83;;;6.10;;
71095;SDS011;58753;49.440;11.126;2023-03-12T13:31:45;9.88;;;4.28;;
71095;SDS011;58753;49.440;11.126;2023-03-12T13:36:36;11.70;;;6.07;;
71095;SDS011;58753;49.440;11.126;2023-03-12T13:41:31;8.70;;;4.93;;
71095;SDS011;58753;49.440;11.126;2023-03-12T13:44:21;8.75;;;4.70;;
71095;SDS011;58753;49.440;11.126;2023-03-12T13:46:57;11.80;;;4.70;;
71095;SDS011;58753;49.440;11.126;2023-03-12T13:52:19;12.30;;;4.80;;
71095;SDS011;58753;49.440;11.126;2023-03-12T13:57:37;9.68;;;4.95;;
71095;SDS011;58753;49.440;11.126;2023-03-12T14:00:05;9.88;;;4.45;;
71095;SDS011;58753;49.440;11.126;2023-03-12T14:02:49;10.20;;;4.75;;
71095;SDS011;58753;49.440;11.126;2023-03-12T14:05:19;9.77;;;4.97;;
71095;SDS011;58753;49.440;11.126;2023-03-12T14:10:35;9.02;;;4.63;;
71095;SDS011;58753;49.440;11.126;2023-03-12T14:19:12;10.67;;;5.63;;
71095;SDS011;58753;49.440;11.126;2023-03-12T14:21:40;9.43;;;4.45;;
71095;SDS011;58753;49.440;11.126;2023-03-12T14:24:14;8.00;;;4.32;;
71095;SDS011;58753;49.440;11.126;2023-03-12T14:26:57;8.88;;;4.70;;
71095;SDS011;58753;49.440;11.126;2023-03-12T14:32:05;9.20;;;4.27;;
71095;SDS011;58753;49.440;11.126;2023-03-12T14:34:50;10.85;;;5.47;;
71095;SDS011;58753;49.440;11.126;2023-03-12T14:37:41;9.15;;;5.25;;
71095;SDS011;58753;49.440;11.126;2023-03-12T14:40:29;12.43;;;6.47;;
71095;SDS011;58753;49.440;11.126;2023-03-12T14:43:00;12.02;;;6.88;;
71095;SDS011;58753;49.440;11.126;2023-03-12T14:45:26;11.30;;;6.13;;
71095;SDS011;58753;49.440;11.126;2023-03-12T14:47:56;10.07;;;4.53;;
71095;SDS011;58753;49.440;11.126;2023-03-12T14:50:23;8.70;;;4.40;;
71095;SDS011;58753;49.440;11.126;2023-03-12T14:52:51;13.02;;;5.75;;
71095;SDS011;58753;49.440;11.126;2023-03-12T14:55:21;9.02;;;4.80;;
71095;SDS011;58753;49.440;11.126;2023-03-12T14:57:49;8.98;;;3.83;;
71095;SDS011;58753;49.440;11.126;2023-03-12T15:00:27;9.57;;;4.68;;
71095;SDS011;58753;49.440;11.126;2023-03-12T15:02:53;7.43;;;3.87;;
71095;SDS011;58753;49.440;11.126;2023-03-12T15:05:21;8.05;;;4.38;;
71095;SDS011;58753;49.440;11.126;2023-03-12T15:07:48;9.65;;;4.30;;
71095;SDS011;58753;49.440;11.126;2023-03-12T15:10:25;6.83;;;4.13;;
71095;SDS011;58753;49.440;11.126;2023-03-12T15:12:53;8.27;;;3.58;;
71095;SDS011;58753;49.440;11.126;2023-03-12T15:17:52;7.90;;;2.35;;
71095;SDS011;58753;49.440;11.126;2023-03-12T15:20:18;10.00;;;4.37;;
71095;SDS011;58753;49.440;11.126;2023-03-12T15:22:45;7.80;;;2.90;;
71095;SDS011;58753;49.440;11.126;2023-03-12T15:25:25;7.55;;;3.47;;
71095;SDS011;58753;49.440;11.126;2023-03-12T15:30:36;7.53;;;3.35;;
71095;SDS011;58753;49.440;11.126;2023-03-12T15:33:03;7.57;;;3.13;;
71095;SDS011;58753;49.440;11.126;2023-03-12T15:35:32;9.05;;;3.85;;
71095;SDS011;58753;49.440;11.126;2023-03-12T15:37:58;6.55;;;2.60;;
71095;SDS011;58753;49.440;11.126;2023-03-12T15:40:25;4.88;;;2.38;;
71095;SDS011;58753;49.440;11.126;2023-03-12T15:42:52;7.57;;;3.30;;
71095;SDS011;58753;49.440;11.126;2023-03-12T15:45:33;6.47;;;2.72;;
71095;SDS011;58753;49.440;11.126;2023-03-12T15:48:01;7.95;;;3.45;;
71095;SDS011;58753;49.440;11.126;2023-03-12T15:50:36;7.03;;;3.03;;
71095;SDS011;58753;49.440;11.126;2023-03-12T15:53:06;7.13;;;2.70;;
71095;SDS011;58753;49.440;11.126;2023-03-12T15:56:03;7.23;;;2.23;;
71095;SDS011;58753;49.440;11.126;2023-03-12T15:58:33;5.95;;;2.42;;
71095;SDS011;58753;49.440;11.126;2023-03-12T16:03:31;7.05;;;3.05;;
71095;SDS011;58753;49.440;11.126;2023-03-12T16:05:56;6.60;;;2.70;;
71095;SDS011;58753;49.440;11.126;2023-03-12T16:08:26;6.83;;;3.10;;
71095;SDS011;58753;49.440;11.126;2023-03-12T16:11:08;5.15;;;2.58;;
71095;SDS011;58753;49.440;11.126;2023-03-12T16:13:39;7.10;;;2.55;;
71095;SDS011;58753;49.440;11.126;2023-03-12T16:16:06;6.18;;;2.40;;
71095;SDS011;58753;49.440;11.126;2023-03-12T16:18:33;6.77;;;2.23;;
71095;SDS011;58753;49.440;11.126;2023-03-12T16:20:58;10.32;;;3.30;;
71095;SDS011;58753;49.440;11.126;2023-03-12T16:23:23;7.87;;;2.47;;
71095;SDS011;58753;49.440;11.126;2023-03-12T16:25:50;8.70;;;2.83;;
71095;SDS011;58753;49.440;11.126;2023-03-12T16:28:18;10.02;;;3.85;;
71095;SDS011;58753;49.440;11.126;2023-03-12T16:30:44;6.43;;;3.22;;
71095;SDS011;58753;49.440;11.126;2023-03-12T16:33:11;7.10;;;2.77;;
71095;SDS011;58753;49.440;11.126;2023-03-12T16:35:38;8.52;;;2.67;;
71095;SDS011;58753;49.440;11.126;2023-03-12T16:38:04;7.73;;;3.40;;
71095;SDS011;58753;49.440;11.126;2023-03-12T16:40:31;5.78;;;3.08;;
71095;SDS011;58753;49.440;11.126;2023-03-12T16:43:06;5.15;;;2.70;;
71095;SDS011;58753;49.440;11.126;2023-03-12T16:45:41;5.22;;;2.70;;
71095;SDS011;58753;49.440;11.126;2023-03-12T16:48:09;7.27;;;2.90;;
71095;SDS011;58753;49.440;11.126;2023-03-12T16:50:37;9.02;;;2.95;;
71095;SDS011;58753;49.440;11.126;2023-03-12T16:53:03;9.07;;;2.90;;